sensor_id;sensor_type;location;lat;lon;timestamp;P1;durP1;ratioP1;P2;durP2;ratioP2
1128;SDS011;553;51.038;7.216;2023-04-06T00:00:50;14.60;;;10.47;;
1128;SDS011;553;51.038;7.216;2023-04-06T00:03:17;16.87;;;11.00;;
1128;SDS011;553;51.038;7.216;2023-04-06T00:05:44;15.03;;;10.83;;
1128;SDS011;553;51.038;7.216;2023-04-06T00:08:12;17.17;;;9.03;;
1128;SDS011;553;51.038;7.216;2023-04-06T00:10:39;12.80;;;9.80;;
1128;SDS011;553;51.038;7.216;2023-04-06T00:13:06;20.37;;;11.20;;
1128;SDS011;553;51.038;7.216;2023-04-06T00:15:33;13.73;;;10.00;;
1128;SDS011;553;51.038;7.216;2023-04-06T00:18:00;16.90;;;10.70;;
1128;SDS011;553;51.038;7.216;2023-04-06T00:20:27;14.07;;;10.10;;
1128;SDS011;553;51.038;7.216;2023-04-06T00:22:54;14.93;;;10.10;;
1128;SDS011;553;51.038;7.216;2023-04-06T00:25:21;16.20;;;8.90;;
1128;SDS011;553;51.038;7.216;2023-04-06T00:27:47;14.87;;;10.20;;
1128;SDS011;553;51.038;7.216;2023-04-06T00:30:14;13.90;;;9.30;;
1128;SDS011;553;51.038;7.216;2023-04-06T00:32:41;14.20;;;10.13;;
1128;SDS011;553;51.038;7.216;2023-04-06T00:35:07;15.43;;;9.07;;
1128;SDS011;553;51.038;7.216;2023-04-06T00:37:35;13.40;;;9.40;;
1128;SDS011;553;51.038;7.216;2023-04-06T00:40:01;13.13;;;9.53;;
1128;SDS011;553;51.038;7.216;2023-04-06T00:42:28;13.80;;;9.10;;
1128;SDS011;553;51.038;7.216;2023-04-06T00:44:56;13.17;;;7.80;;
1128;SDS011;553;51.038;7.216;2023-04-06T00:47:25;15.93;;;8.30;;
1128;SDS011;553;51.038;7.216;2023-04-06T00:49:52;13.53;;;8.73;;
1128;SDS011;553;51.038;7.216;2023-04-06T00:52:20;15.87;;;9.43;;
1128;SDS011;553;51.038;7.216;2023-04-06T00:54:48;11.47;;;7.33;;
1128;SDS011;553;51.038;7.216;2023-04-06T00:57:18;12.93;;;8.60;;
1128;SDS011;553;51.038;7.216;2023-04-06T00:59:50;14.20;;;9.60;;
1128;SDS011;553;51.038;7.216;2023-04-06T01:02:18;13.17;;;8.30;;
1128;SDS011;553;51.038;7.216;2023-04-06T01:04:48;12.00;;;8.20;;
1128;SDS011;553;51.038;7.216;2023-04-06T02:41:04;12.70;;;7.23;;
1128;SDS011;553;51.038;7.216;2023-04-06T02:43:32;10.83;;;7.57;;
1128;SDS011;553;51.038;7.216;2023-04-06T02:46:04;10.13;;;7.80;;
1128;SDS011;553;51.038;7.216;2023-04-06T02:48:35;10.77;;;7.93;;
1128;SDS011;553;51.038;7.216;2023-04-06T02:51:03;12.27;;;7.83;;
1128;SDS011;553;51.038;7.216;2023-04-06T02:53:30;12.07;;;7.50;;
1128;SDS011;553;51.038;7.216;2023-04-06T02:55:56;10.80;;;7.90;;
1128;SDS011;553;51.038;7.216;2023-04-06T02:58:29;11.40;;;7.97;;
1128;SDS011;553;51.038;7.216;2023-04-06T03:00:56;11.47;;;7.90;;
1128;SDS011;553;51.038;7.216;2023-04-06T03:03:23;12.90;;;8.13;;
1128;SDS011;553;51.038;7.216;2023-04-06T03:05:50;12.30;;;7.70;;
1128;SDS011;553;51.038;7.216;2023-04-06T03:08:24;12.27;;;7.33;;
1128;SDS011;553;51.038;7.216;2023-04-06T03:10:51;10.53;;;7.13;;
1128;SDS011;553;51.038;7.216;2023-04-06T03:13:18;13.60;;;7.63;;
1128;SDS011;553;51.038;7.216;2023-04-06T03:15:48;11.00;;;7.20;;
1128;SDS011;553;51.038;7.216;2023-04-06T03:18:20;14.60;;;8.07;;
1128;SDS011;553;51.038;7.216;2023-04-06T03:20:52;11.43;;;7.30;;
1128;SDS011;553;51.038;7.216;2023-04-06T03:23:31;10.53;;;7.47;;
1128;SDS011;553;51.038;7.216;2023-04-06T03:26:00;12.23;;;7.63;;
1128;SDS011;553;51.038;7.216;2023-04-06T03:28:28;11.63;;;7.73;;
1128;SDS011;553;51.038;7.216;2023-04-06T03:30:58;12.20;;;7.40;;
1128;SDS011;553;51.038;7.216;2023-04-06T03:33:41;11.93;;;7.20;;
1128;SDS011;553;51.038;7.216;2023-04-06T03:36:13;13.33;;;8.53;;
1128;SDS011;553;51.038;7.216;2023-04-06T03:38:42;10.90;;;7.57;;
1128;SDS011;553;51.038;7.216;2023-04-06T03:41:11;11.23;;;7.50;;
1128;SDS011;553;51.038;7.216;2023-04-06T03:43:41;8.87;;;6.90;;
1128;SDS011;553;51.038;7.216;2023-04-06T03:46:08;12.83;;;8.90;;
1128;SDS011;553;51.038;7.216;2023-04-06T03:48:35;10.57;;;7.20;;
1128;SDS011;553;51.038;7.216;2023-04-06T03:51:04;12.83;;;8.27;;
1128;SDS011;553;51.038;7.216;2023-04-06T03:53:31;12.10;;;7.90;;
1128;SDS011;553;51.038;7.216;2023-04-06T03:55:57;11.53;;;7.63;;
1128;SDS011;553;51.038;7.216;2023-04-06T03:58:26;13.83;;;8.20;;
1128;SDS011;553;51.038;7.216;2023-04-06T04:00:53;12.10;;;8.00;;
1128;SDS011;553;51.038;7.216;2023-04-06T04:03:20;12.20;;;8.03;;
1128;SDS011;553;51.038;7.216;2023-04-06T04:05:48;12.63;;;7.80;;
1128;SDS011;553;51.038;7.216;2023-04-06T04:08:16;11.20;;;7.57;;
1128;SDS011;553;51.038;7.216;2023-04-06T04:10:43;12.17;;;7.00;;
1128;SDS011;553;51.038;7.216;2023-04-06T04:13:09;12.13;;;8.53;;
1128;SDS011;553;51.038;7.216;2023-04-06T04:15:37;12.43;;;7.90;;
1128;SDS011;553;51.038;7.216;2023-04-06T04:18:03;10.60;;;7.63;;
1128;SDS011;553;51.038;7.216;2023-04-06T04:20:31;10.40;;;7.13;;
1128;SDS011;553;51.038;7.216;2023-04-06T04:22:59;14.63;;;7.10;;
1128;SDS011;553;51.038;7.216;2023-04-06T04:25:30;11.63;;;7.57;;
1128;SDS011;553;51.038;7.216;2023-04-06T04:27:56;10.27;;;6.97;;
1128;SDS011;553;51.038;7.216;2023-04-06T04:30:23;10.90;;;8.03;;
1128;SDS011;553;51.038;7.216;2023-04-06T04:32:50;14.70;;;6.63;;
1128;SDS011;553;51.038;7.216;2023-04-06T04:35:20;9.77;;;7.27;;
1128;SDS011;553;51.038;7.216;2023-04-06T04:37:48;11.17;;;7.87;;
1128;SDS011;553;51.038;7.216;2023-04-06T04:40:15;11.80;;;7.70;;
1128;SDS011;553;51.038;7.216;2023-04-06T04:42:50;16.70;;;8.50;;
1128;SDS011;553;51.038;7.216;2023-04-06T04:45:26;13.97;;;7.70;;
1128;SDS011;553;51.038;7.216;2023-04-06T04:47:54;11.87;;;6.90;;
1128;SDS011;553;51.038;7.216;2023-04-06T04:50:23;12.03;;;7.00;;
1128;SDS011;553;51.038;7.216;2023-04-06T04:52:54;11.83;;;7.33;;
1128;SDS011;553;51.038;7.216;2023-04-06T04:55:24;13.40;;;7.63;;
1128;SDS011;553;51.038;7.216;2023-04-06T04:57:53;11.50;;;7.30;;
1128;SDS011;553;51.038;7.216;2023-04-06T05:00:26;10.17;;;6.40;;
1128;SDS011;553;51.038;7.216;2023-04-06T05:02:56;13.40;;;7.07;;
1128;SDS011;553;51.038;7.216;2023-04-06T05:05:29;12.00;;;7.87;;
1128;SDS011;553;51.038;7.216;2023-04-06T05:07:56;12.40;;;7.90;;
1128;SDS011;553;51.038;7.216;2023-04-06T05:10:34;14.70;;;7.40;;
1128;SDS011;553;51.038;7.216;2023-04-06T05:13:02;10.23;;;7.60;;
1128;SDS011;553;51.038;7.216;2023-04-06T05:15:30;9.80;;;7.97;;
1128;SDS011;553;51.038;7.216;2023-04-06T05:18:04;11.40;;;7.53;;
1128;SDS011;553;51.038;7.216;2023-04-06T05:20:32;13.87;;;7.03;;
1128;SDS011;553;51.038;7.216;2023-04-06T05:23:00;12.83;;;7.00;;
1128;SDS011;553;51.038;7.216;2023-04-06T05:25:27;9.87;;;6.63;;
1128;SDS011;553;51.038;7.216;2023-04-06T05:28:01;10.77;;;7.43;;
1128;SDS011;553;51.038;7.216;2023-04-06T05:30:30;11.53;;;7.70;;
1128;SDS011;553;51.038;7.216;2023-04-06T05:32:58;12.23;;;7.53;;
1128;SDS011;553;51.038;7.216;2023-04-06T05:35:30;14.07;;;7.87;;
1128;SDS011;553;51.038;7.216;2023-04-06T05:38:07;7.63;;;5.80;;
1128;SDS011;553;51.038;7.216;2023-04-06T05:40:34;10.03;;;6.90;;
1128;SDS011;553;51.038;7.216;2023-04-06T05:43:03;10.07;;;6.63;;
1128;SDS011;553;51.038;7.216;2023-04-06T05:45:30;12.03;;;7.27;;
1128;SDS011;553;51.038;7.216;2023-04-06T05:47:57;12.73;;;6.70;;
1128;SDS011;553;51.038;7.216;2023-04-06T05:50:28;12.07;;;7.13;;
1128;SDS011;553;51.038;7.216;2023-04-06T05:52:56;12.50;;;7.13;;
1128;SDS011;553;51.038;7.216;2023-04-06T05:55:27;8.60;;;5.63;;
1128;SDS011;553;51.038;7.216;2023-04-06T05:58:06;8.90;;;6.57;;
1128;SDS011;553;51.038;7.216;2023-04-06T06:00:33;13.80;;;6.00;;
1128;SDS011;553;51.038;7.216;2023-04-06T06:03:04;10.13;;;6.20;;
1128;SDS011;553;51.038;7.216;2023-04-06T06:05:33;12.33;;;6.53;;
1128;SDS011;553;51.038;7.216;2023-04-06T06:08:11;9.80;;;5.57;;
1128;SDS011;553;51.038;7.216;2023-04-06T06:10:38;11.30;;;6.23;;
1128;SDS011;553;51.038;7.216;2023-04-06T06:13:08;9.70;;;6.53;;
1128;SDS011;553;51.038;7.216;2023-04-06T06:15:35;9.00;;;6.10;;
1128;SDS011;553;51.038;7.216;2023-04-06T06:18:02;10.33;;;6.33;;
1128;SDS011;553;51.038;7.216;2023-04-06T06:20:29;9.73;;;5.70;;
1128;SDS011;553;51.038;7.216;2023-04-06T06:23:00;12.70;;;6.97;;
1128;SDS011;553;51.038;7.216;2023-04-06T06:25:26;14.03;;;6.73;;
1128;SDS011;553;51.038;7.216;2023-04-06T06:27:53;11.00;;;5.80;;
1128;SDS011;553;51.038;7.216;2023-04-06T06:30:20;7.40;;;6.20;;
1128;SDS011;553;51.038;7.216;2023-04-06T06:32:49;8.13;;;5.70;;
1128;SDS011;553;51.038;7.216;2023-04-06T06:35:17;9.83;;;7.43;;
1128;SDS011;553;51.038;7.216;2023-04-06T06:37:46;12.27;;;6.50;;
1128;SDS011;553;51.038;7.216;2023-04-06T06:40:16;7.23;;;5.50;;
1128;SDS011;553;51.038;7.216;2023-04-06T06:42:47;8.07;;;5.27;;
1128;SDS011;553;51.038;7.216;2023-04-06T06:45:24;10.47;;;6.13;;
1128;SDS011;553;51.038;7.216;2023-04-06T06:47:51;11.53;;;6.20;;
1128;SDS011;553;51.038;7.216;2023-04-06T06:50:21;10.20;;;6.30;;
1128;SDS011;553;51.038;7.216;2023-04-06T06:52:47;13.20;;;6.77;;
1128;SDS011;553;51.038;7.216;2023-04-06T06:55:14;9.10;;;5.27;;
1128;SDS011;553;51.038;7.216;2023-04-06T06:57:41;7.97;;;5.53;;
1128;SDS011;553;51.038;7.216;2023-04-06T07:00:10;10.40;;;6.53;;
1128;SDS011;553;51.038;7.216;2023-04-06T07:02:39;12.70;;;6.40;;
1128;SDS011;553;51.038;7.216;2023-04-06T07:05:06;8.47;;;6.00;;
1128;SDS011;553;51.038;7.216;2023-04-06T07:07:51;8.00;;;6.07;;
1128;SDS011;553;51.038;7.216;2023-04-06T07:10:18;9.93;;;6.20;;
1128;SDS011;553;51.038;7.216;2023-04-06T07:12:45;9.03;;;6.13;;
1128;SDS011;553;51.038;7.216;2023-04-06T07:15:12;10.10;;;6.50;;
1128;SDS011;553;51.038;7.216;2023-04-06T07:17:39;13.27;;;7.70;;
1128;SDS011;553;51.038;7.216;2023-04-06T07:20:07;10.20;;;6.30;;
1128;SDS011;553;51.038;7.216;2023-04-06T07:22:34;9.87;;;5.90;;
1128;SDS011;553;51.038;7.216;2023-04-06T07:25:01;12.23;;;6.97;;
1128;SDS011;553;51.038;7.216;2023-04-06T07:27:29;11.43;;;6.80;;
1128;SDS011;553;51.038;7.216;2023-04-06T07:29:55;11.00;;;6.70;;
1128;SDS011;553;51.038;7.216;2023-04-06T07:32:23;10.60;;;5.97;;
1128;SDS011;553;51.038;7.216;2023-04-06T07:34:50;10.40;;;6.87;;
1128;SDS011;553;51.038;7.216;2023-04-06T07:37:17;10.63;;;6.50;;
1128;SDS011;553;51.038;7.216;2023-04-06T07:39:44;11.33;;;6.93;;
1128;SDS011;553;51.038;7.216;2023-04-06T07:42:11;14.30;;;7.20;;
1128;SDS011;553;51.038;7.216;2023-04-06T07:44:38;11.67;;;6.80;;
1128;SDS011;553;51.038;7.216;2023-04-06T07:47:04;9.90;;;6.50;;
1128;SDS011;553;51.038;7.216;2023-04-06T07:49:31;10.90;;;7.10;;
1128;SDS011;553;51.038;7.216;2023-04-06T07:52:00;11.93;;;7.40;;
1128;SDS011;553;51.038;7.216;2023-04-06T07:54:29;13.30;;;7.83;;
1128;SDS011;553;51.038;7.216;2023-04-06T07:56:55;14.00;;;7.30;;
1128;SDS011;553;51.038;7.216;2023-04-06T07:59:22;9.83;;;7.13;;
1128;SDS011;553;51.038;7.216;2023-04-06T08:01:49;11.90;;;7.17;;
1128;SDS011;553;51.038;7.216;2023-04-06T08:04:16;11.00;;;7.10;;
1128;SDS011;553;51.038;7.216;2023-04-06T08:06:42;13.10;;;7.87;;
1128;SDS011;553;51.038;7.216;2023-04-06T08:09:09;17.67;;;8.57;;
1128;SDS011;553;51.038;7.216;2023-04-06T08:11:36;10.07;;;7.03;;
1128;SDS011;553;51.038;7.216;2023-04-06T08:14:02;10.70;;;7.60;;
1128;SDS011;553;51.038;7.216;2023-04-06T08:16:29;13.07;;;7.90;;
1128;SDS011;553;51.038;7.216;2023-04-06T08:18:56;14.03;;;8.07;;
1128;SDS011;553;51.038;7.216;2023-04-06T08:21:23;11.03;;;7.67;;
1128;SDS011;553;51.038;7.216;2023-04-06T08:23:49;12.10;;;7.90;;
1128;SDS011;553;51.038;7.216;2023-04-06T08:26:16;10.83;;;7.07;;
1128;SDS011;553;51.038;7.216;2023-04-06T08:28:43;11.37;;;7.70;;
1128;SDS011;553;51.038;7.216;2023-04-06T08:31:12;13.93;;;8.20;;
1128;SDS011;553;51.038;7.216;2023-04-06T08:33:39;15.40;;;9.53;;
1128;SDS011;553;51.038;7.216;2023-04-06T08:36:12;13.90;;;8.70;;
1128;SDS011;553;51.038;7.216;2023-04-06T08:38:40;13.27;;;8.90;;
1128;SDS011;553;51.038;7.216;2023-04-06T08:43:43;14.20;;;9.60;;
1128;SDS011;553;51.038;7.216;2023-04-06T08:46:12;13.40;;;9.53;;
1128;SDS011;553;51.038;7.216;2023-04-06T08:48:41;12.07;;;9.00;;
1128;SDS011;553;51.038;7.216;2023-04-06T08:51:09;12.57;;;9.00;;
1128;SDS011;553;51.038;7.216;2023-04-06T08:53:37;13.40;;;8.90;;
1128;SDS011;553;51.038;7.216;2023-04-06T08:56:04;11.40;;;7.70;;
1128;SDS011;553;51.038;7.216;2023-04-06T08:58:34;11.90;;;8.37;;
1128;SDS011;553;51.038;7.216;2023-04-06T09:01:08;14.20;;;8.60;;
1128;SDS011;553;51.038;7.216;2023-04-06T09:03:38;10.20;;;8.73;;
1128;SDS011;553;51.038;7.216;2023-04-06T09:06:07;15.20;;;9.60;;
1128;SDS011;553;51.038;7.216;2023-04-06T09:08:34;9.50;;;7.50;;
1128;SDS011;553;51.038;7.216;2023-04-06T09:11:02;15.10;;;10.43;;
1128;SDS011;553;51.038;7.216;2023-04-06T09:13:30;12.30;;;9.00;;
1128;SDS011;553;51.038;7.216;2023-04-06T09:15:58;15.33;;;9.80;;
1128;SDS011;553;51.038;7.216;2023-04-06T09:18:31;13.60;;;9.63;;
1128;SDS011;553;51.038;7.216;2023-04-06T09:21:05;12.20;;;9.07;;
1128;SDS011;553;51.038;7.216;2023-04-06T09:23:33;16.73;;;9.60;;
1128;SDS011;553;51.038;7.216;2023-04-06T09:28:44;13.97;;;9.80;;
1128;SDS011;553;51.038;7.216;2023-04-06T09:31:15;13.83;;;9.37;;
1128;SDS011;553;51.038;7.216;2023-04-06T09:33:44;20.13;;;10.07;;
1128;SDS011;553;51.038;7.216;2023-04-06T09:36:11;15.60;;;9.83;;
1128;SDS011;553;51.038;7.216;2023-04-06T09:38:50;13.00;;;8.87;;
1128;SDS011;553;51.038;7.216;2023-04-06T09:44:01;16.10;;;10.10;;
1128;SDS011;553;51.038;7.216;2023-04-06T09:46:30;12.77;;;9.20;;
1128;SDS011;553;51.038;7.216;2023-04-06T09:49:20;14.10;;;9.93;;
1128;SDS011;553;51.038;7.216;2023-04-06T09:51:51;17.03;;;10.17;;
1128;SDS011;553;51.038;7.216;2023-04-06T09:54:23;14.53;;;9.90;;
1128;SDS011;553;51.038;7.216;2023-04-06T09:56:56;13.60;;;9.67;;
1128;SDS011;553;51.038;7.216;2023-04-06T10:02:44;14.20;;;9.53;;
1128;SDS011;553;51.038;7.216;2023-04-06T10:08:05;14.70;;;10.20;;
1128;SDS011;553;51.038;7.216;2023-04-06T10:10:34;16.47;;;10.37;;
1128;SDS011;553;51.038;7.216;2023-04-06T10:13:01;16.30;;;10.77;;
1128;SDS011;553;51.038;7.216;2023-04-06T10:15:28;15.30;;;10.57;;
1128;SDS011;553;51.038;7.216;2023-04-06T10:17:59;27.30;;;10.40;;
1128;SDS011;553;51.038;7.216;2023-04-06T10:25:51;14.67;;;10.37;;
1128;SDS011;553;51.038;7.216;2023-04-06T10:28:25;13.70;;;9.40;;
1128;SDS011;553;51.038;7.216;2023-04-06T10:30:57;17.83;;;10.70;;
1128;SDS011;553;51.038;7.216;2023-04-06T10:33:24;15.20;;;9.93;;
1128;SDS011;553;51.038;7.216;2023-04-06T10:35:51;15.70;;;10.67;;
1128;SDS011;553;51.038;7.216;2023-04-06T10:38:18;17.77;;;10.23;;
1128;SDS011;553;51.038;7.216;2023-04-06T10:40:48;22.77;;;12.73;;
1128;SDS011;553;51.038;7.216;2023-04-06T10:43:18;15.30;;;10.03;;
1128;SDS011;553;51.038;7.216;2023-04-06T10:45:57;16.60;;;10.63;;
1128;SDS011;553;51.038;7.216;2023-04-06T10:48:39;17.90;;;9.93;;
1128;SDS011;553;51.038;7.216;2023-04-06T10:51:08;18.63;;;10.93;;
1128;SDS011;553;51.038;7.216;2023-04-06T10:53:37;14.70;;;9.70;;
1128;SDS011;553;51.038;7.216;2023-04-06T10:56:04;15.17;;;10.90;;
1128;SDS011;553;51.038;7.216;2023-04-06T10:58:36;16.73;;;11.13;;
1128;SDS011;553;51.038;7.216;2023-04-06T11:01:03;17.50;;;11.20;;
1128;SDS011;553;51.038;7.216;2023-04-06T11:03:31;14.77;;;10.77;;
1128;SDS011;553;51.038;7.216;2023-04-06T11:05:59;15.90;;;10.20;;
1128;SDS011;553;51.038;7.216;2023-04-06T11:08:32;17.60;;;10.47;;
1128;SDS011;553;51.038;7.216;2023-04-06T11:11:04;18.77;;;10.87;;
1128;SDS011;553;51.038;7.216;2023-04-06T11:13:42;17.70;;;11.60;;
1128;SDS011;553;51.038;7.216;2023-04-06T11:16:20;16.70;;;10.73;;
1128;SDS011;553;51.038;7.216;2023-04-06T11:18:50;18.00;;;11.00;;
1128;SDS011;553;51.038;7.216;2023-04-06T11:21:39;18.07;;;11.37;;
1128;SDS011;553;51.038;7.216;2023-04-06T11:26:44;17.77;;;12.00;;
1128;SDS011;553;51.038;7.216;2023-04-06T11:29:26;19.53;;;12.80;;
1128;SDS011;553;51.038;7.216;2023-04-06T11:32:01;20.73;;;12.37;;
1128;SDS011;553;51.038;7.216;2023-04-06T11:34:30;16.20;;;11.40;;
1128;SDS011;553;51.038;7.216;2023-04-06T11:37:03;16.80;;;11.07;;
1128;SDS011;553;51.038;7.216;2023-04-06T11:39:38;16.03;;;11.77;;
1128;SDS011;553;51.038;7.216;2023-04-06T11:42:06;17.77;;;11.37;;
1128;SDS011;553;51.038;7.216;2023-04-06T11:44:44;15.57;;;11.10;;
1128;SDS011;553;51.038;7.216;2023-04-06T11:47:12;19.87;;;11.80;;
1128;SDS011;553;51.038;7.216;2023-04-06T11:49:39;16.20;;;12.60;;
1128;SDS011;553;51.038;7.216;2023-04-06T11:52:23;18.63;;;13.00;;
1128;SDS011;553;51.038;7.216;2023-04-06T11:54:52;18.97;;;13.20;;
1128;SDS011;553;51.038;7.216;2023-04-06T11:57:20;23.13;;;12.80;;
1128;SDS011;553;51.038;7.216;2023-04-06T11:59:51;19.03;;;12.17;;
1128;SDS011;553;51.038;7.216;2023-04-06T12:02:18;17.47;;;11.63;;
1128;SDS011;553;51.038;7.216;2023-04-06T12:04:45;16.40;;;12.73;;
1128;SDS011;553;51.038;7.216;2023-04-06T12:07:12;18.70;;;11.93;;
1128;SDS011;553;51.038;7.216;2023-04-06T12:09:39;15.83;;;11.80;;
1128;SDS011;553;51.038;7.216;2023-04-06T12:12:06;22.60;;;11.43;;
1128;SDS011;553;51.038;7.216;2023-04-06T12:14:32;18.40;;;11.33;;
1128;SDS011;553;51.038;7.216;2023-04-06T12:16:59;18.50;;;12.07;;
1128;SDS011;553;51.038;7.216;2023-04-06T12:19:26;17.20;;;11.73;;
1128;SDS011;553;51.038;7.216;2023-04-06T12:21:55;19.73;;;12.03;;
1128;SDS011;553;51.038;7.216;2023-04-06T12:24:23;8.67;;;5.97;;
1128;SDS011;553;51.038;7.216;2023-04-06T12:26:50;18.30;;;12.70;;
1128;SDS011;553;51.038;7.216;2023-04-06T12:29:31;21.03;;;12.67;;
1128;SDS011;553;51.038;7.216;2023-04-06T12:31:59;21.47;;;13.20;;
1128;SDS011;553;51.038;7.216;2023-04-06T12:34:27;19.13;;;12.20;;
1128;SDS011;553;51.038;7.216;2023-04-06T12:36:54;17.87;;;11.20;;
1128;SDS011;553;51.038;7.216;2023-04-06T12:39:21;19.10;;;11.60;;
1128;SDS011;553;51.038;7.216;2023-04-06T12:41:48;18.07;;;11.60;;
1128;SDS011;553;51.038;7.216;2023-04-06T12:44:15;15.07;;;11.00;;
1128;SDS011;553;51.038;7.216;2023-04-06T12:46:42;21.07;;;11.30;;
1128;SDS011;553;51.038;7.216;2023-04-06T12:49:09;16.40;;;11.43;;
1128;SDS011;553;51.038;7.216;2023-04-06T12:51:36;18.00;;;10.37;;
1128;SDS011;553;51.038;7.216;2023-04-06T12:54:02;16.17;;;10.70;;
1128;SDS011;553;51.038;7.216;2023-04-06T12:56:29;16.87;;;11.70;;
1128;SDS011;553;51.038;7.216;2023-04-06T12:58:57;17.83;;;11.80;;
1128;SDS011;553;51.038;7.216;2023-04-06T13:01:24;16.07;;;10.93;;
1128;SDS011;553;51.038;7.216;2023-04-06T13:03:51;17.97;;;12.40;;
1128;SDS011;553;51.038;7.216;2023-04-06T13:06:19;21.70;;;12.00;;
1128;SDS011;553;51.038;7.216;2023-04-06T13:08:46;19.97;;;12.40;;
1128;SDS011;553;51.038;7.216;2023-04-06T13:11:13;16.67;;;10.70;;
1128;SDS011;553;51.038;7.216;2023-04-06T13:13:40;17.67;;;11.17;;
1128;SDS011;553;51.038;7.216;2023-04-06T13:16:07;14.43;;;10.03;;
1128;SDS011;553;51.038;7.216;2023-04-06T13:18:34;13.90;;;9.73;;
1128;SDS011;553;51.038;7.216;2023-04-06T13:21:04;17.60;;;11.10;;
1128;SDS011;553;51.038;7.216;2023-04-06T13:23:32;14.83;;;9.77;;
1128;SDS011;553;51.038;7.216;2023-04-06T13:26:01;15.67;;;9.37;;
1128;SDS011;553;51.038;7.216;2023-04-06T13:28:30;14.10;;;9.10;;
1128;SDS011;553;51.038;7.216;2023-04-06T13:30:58;15.77;;;9.20;;
1128;SDS011;553;51.038;7.216;2023-04-06T13:33:26;14.30;;;8.93;;
1128;SDS011;553;51.038;7.216;2023-04-06T13:35:53;12.80;;;8.90;;
1128;SDS011;553;51.038;7.216;2023-04-06T13:38:20;11.63;;;8.03;;
1128;SDS011;553;51.038;7.216;2023-04-06T13:40:46;10.80;;;8.00;;
1128;SDS011;553;51.038;7.216;2023-04-06T13:43:14;13.87;;;9.80;;
1128;SDS011;553;51.038;7.216;2023-04-06T13:45:41;14.60;;;10.27;;
1128;SDS011;553;51.038;7.216;2023-04-06T13:48:14;16.80;;;10.00;;
1128;SDS011;553;51.038;7.216;2023-04-06T13:50:41;14.10;;;9.47;;
1128;SDS011;553;51.038;7.216;2023-04-06T13:53:08;14.73;;;10.40;;
1128;SDS011;553;51.038;7.216;2023-04-06T13:55:34;13.33;;;8.73;;
1128;SDS011;553;51.038;7.216;2023-04-06T13:58:02;13.13;;;8.40;;
1128;SDS011;553;51.038;7.216;2023-04-06T14:00:28;13.00;;;8.93;;
1128;SDS011;553;51.038;7.216;2023-04-06T14:02:55;12.50;;;8.50;;
1128;SDS011;553;51.038;7.216;2023-04-06T14:05:22;12.80;;;8.30;;
1128;SDS011;553;51.038;7.216;2023-04-06T14:07:50;10.20;;;7.67;;
1128;SDS011;553;51.038;7.216;2023-04-06T14:10:16;18.67;;;9.87;;
1128;SDS011;553;51.038;7.216;2023-04-06T14:12:44;11.53;;;8.93;;
1128;SDS011;553;51.038;7.216;2023-04-06T14:15:11;12.43;;;8.60;;
1128;SDS011;553;51.038;7.216;2023-04-06T14:17:38;14.33;;;8.90;;
1128;SDS011;553;51.038;7.216;2023-04-06T14:20:06;16.70;;;10.00;;
1128;SDS011;553;51.038;7.216;2023-04-06T14:22:33;13.77;;;8.90;;
1128;SDS011;553;51.038;7.216;2023-04-06T14:25:00;15.43;;;9.57;;
1128;SDS011;553;51.038;7.216;2023-04-06T14:27:26;17.87;;;10.47;;
1128;SDS011;553;51.038;7.216;2023-04-06T14:29:54;12.50;;;8.30;;
1128;SDS011;553;51.038;7.216;2023-04-06T14:32:20;13.30;;;8.37;;
1128;SDS011;553;51.038;7.216;2023-04-06T14:34:47;11.90;;;7.67;;
1128;SDS011;553;51.038;7.216;2023-04-06T14:37:14;12.23;;;7.60;;
1128;SDS011;553;51.038;7.216;2023-04-06T14:39:42;10.87;;;7.47;;
1128;SDS011;553;51.038;7.216;2023-04-06T14:42:09;8.40;;;6.43;;
1128;SDS011;553;51.038;7.216;2023-04-06T14:44:35;11.13;;;7.13;;
1128;SDS011;553;51.038;7.216;2023-04-06T14:47:03;9.63;;;6.77;;
1128;SDS011;553;51.038;7.216;2023-04-06T14:49:31;9.63;;;5.97;;
1128;SDS011;553;51.038;7.216;2023-04-06T14:51:59;9.60;;;6.13;;
1128;SDS011;553;51.038;7.216;2023-04-06T14:54:25;10.70;;;5.93;;
1128;SDS011;553;51.038;7.216;2023-04-06T14:56:52;9.83;;;6.53;;
1128;SDS011;553;51.038;7.216;2023-04-06T14:59:19;8.80;;;6.00;;
1128;SDS011;553;51.038;7.216;2023-04-06T15:01:45;5.23;;;4.37;;
1128;SDS011;553;51.038;7.216;2023-04-06T15:04:12;8.23;;;5.77;;
1128;SDS011;553;51.038;7.216;2023-04-06T15:06:40;14.53;;;7.70;;
1128;SDS011;553;51.038;7.216;2023-04-06T15:09:07;9.53;;;7.10;;
1128;SDS011;553;51.038;7.216;2023-04-06T15:11:33;13.27;;;7.30;;
1128;SDS011;553;51.038;7.216;2023-04-06T15:14:00;13.93;;;8.70;;
1128;SDS011;553;51.038;7.216;2023-04-06T15:16:28;10.97;;;7.80;;
1128;SDS011;553;51.038;7.216;2023-04-06T15:18:58;16.43;;;8.07;;
1128;SDS011;553;51.038;7.216;2023-04-06T15:21:26;12.87;;;8.80;;
1128;SDS011;553;51.038;7.216;2023-04-06T15:23:53;11.03;;;7.27;;
1128;SDS011;553;51.038;7.216;2023-04-06T15:26:20;12.50;;;7.53;;
1128;SDS011;553;51.038;7.216;2023-04-06T15:28:47;11.87;;;7.73;;
1128;SDS011;553;51.038;7.216;2023-04-06T15:31:14;11.97;;;7.90;;
1128;SDS011;553;51.038;7.216;2023-04-06T15:33:58;11.13;;;7.77;;
1128;SDS011;553;51.038;7.216;2023-04-06T15:36:26;10.10;;;7.60;;
1128;SDS011;553;51.038;7.216;2023-04-06T15:38:56;13.63;;;8.50;;
1128;SDS011;553;51.038;7.216;2023-04-06T15:41:24;14.47;;;8.83;;
1128;SDS011;553;51.038;7.216;2023-04-06T15:43:54;11.60;;;7.90;;
1128;SDS011;553;51.038;7.216;2023-04-06T15:46:21;15.43;;;8.47;;
1128;SDS011;553;51.038;7.216;2023-04-06T15:48:48;13.47;;;7.83;;
1128;SDS011;553;51.038;7.216;2023-04-06T15:51:15;12.40;;;9.27;;
1128;SDS011;553;51.038;7.216;2023-04-06T15:53:43;11.10;;;8.83;;
1128;SDS011;553;51.038;7.216;2023-04-06T15:56:10;11.73;;;8.43;;
1128;SDS011;553;51.038;7.216;2023-04-06T15:58:39;14.50;;;10.37;;
1128;SDS011;553;51.038;7.216;2023-04-06T16:01:13;13.60;;;9.43;;
1128;SDS011;553;51.038;7.216;2023-04-06T16:03:41;12.40;;;9.33;;
1128;SDS011;553;51.038;7.216;2023-04-06T16:06:09;15.93;;;10.20;;
1128;SDS011;553;51.038;7.216;2023-04-06T16:08:36;15.57;;;9.20;;
1128;SDS011;553;51.038;7.216;2023-04-06T16:11:04;13.20;;;9.00;;
1128;SDS011;553;51.038;7.216;2023-04-06T16:13:32;17.17;;;8.50;;
1128;SDS011;553;51.038;7.216;2023-04-06T16:15:59;11.33;;;8.67;;
1128;SDS011;553;51.038;7.216;2023-04-06T16:18:26;10.63;;;8.00;;
1128;SDS011;553;51.038;7.216;2023-04-06T16:20:53;9.87;;;7.10;;
1128;SDS011;553;51.038;7.216;2023-04-06T16:23:19;14.20;;;7.80;;
1128;SDS011;553;51.038;7.216;2023-04-06T16:25:46;10.27;;;6.87;;
1128;SDS011;553;51.038;7.216;2023-04-06T16:28:13;9.70;;;6.57;;
1128;SDS011;553;51.038;7.216;2023-04-06T16:30:40;10.80;;;7.30;;
1128;SDS011;553;51.038;7.216;2023-04-06T16:33:11;10.63;;;7.57;;
1128;SDS011;553;51.038;7.216;2023-04-06T16:35:42;11.83;;;8.33;;
1128;SDS011;553;51.038;7.216;2023-04-06T16:38:12;13.47;;;8.40;;
1128;SDS011;553;51.038;7.216;2023-04-06T16:40:39;12.47;;;8.40;;
1128;SDS011;553;51.038;7.216;2023-04-06T16:43:06;10.43;;;7.47;;
1128;SDS011;553;51.038;7.216;2023-04-06T16:45:34;11.23;;;8.03;;
1128;SDS011;553;51.038;7.216;2023-04-06T16:48:02;9.63;;;6.53;;
1128;SDS011;553;51.038;7.216;2023-04-06T16:50:28;10.10;;;7.87;;
1128;SDS011;553;51.038;7.216;2023-04-06T16:52:55;12.10;;;7.37;;
1128;SDS011;553;51.038;7.216;2023-04-06T16:55:22;11.40;;;6.90;;
1128;SDS011;553;51.038;7.216;2023-04-06T16:57:48;10.37;;;7.47;;
1128;SDS011;553;51.038;7.216;2023-04-06T17:00:15;11.37;;;7.57;;
1128;SDS011;553;51.038;7.216;2023-04-06T17:02:45;11.77;;;7.90;;
1128;SDS011;553;51.038;7.216;2023-04-06T17:05:12;12.20;;;7.20;;
1128;SDS011;553;51.038;7.216;2023-04-06T17:07:39;11.07;;;7.60;;
1128;SDS011;553;51.038;7.216;2023-04-06T17:10:06;11.03;;;7.97;;
1128;SDS011;553;51.038;7.216;2023-04-06T17:12:33;10.40;;;7.27;;
1128;SDS011;553;51.038;7.216;2023-04-06T17:15:00;11.20;;;8.43;;
1128;SDS011;553;51.038;7.216;2023-04-06T17:17:27;12.50;;;8.90;;